sensor_id;sensor_type;location;lat;lon;timestamp;P1;durP1;ratioP1;P2;durP2;ratioP2
19836;SDS011;10079;55.740;37.662;2022-08-05T00:02:48;20.47;;;15.90;;
19836;SDS011;10079;55.740;37.662;2022-08-05T00:05:33;21.50;;;16.00;;
19836;SDS011;10079;55.740;37.662;2022-08-05T00:29:27;20.00;;;16.53;;
19836;SDS011;10079;55.740;37.662;2022-08-05T00:32:11;18.20;;;16.20;;
19836;SDS011;10079;55.740;37.662;2022-08-05T00:35:04;23.03;;;15.80;;
19836;SDS011;10079;55.740;37.662;2022-08-05T00:37:49;19.27;;;16.33;;
19836;SDS011;10079;55.740;37.662;2022-08-05T00:40:43;18.07;;;15.90;;
19836;SDS011;10079;55.740;37.662;2022-08-05T00:43:26;22.43;;;15.60;;
19836;SDS011;10079;55.740;37.662;2022-08-05T00:46:07;18.70;;;15.43;;
19836;SDS011;10079;55.740;37.662;2022-08-05T00:48:51;22.80;;;17.10;;
19836;SDS011;10079;55.740;37.662;2022-08-05T00:51:32;21.47;;;16.20;;
19836;SDS011;10079;55.740;37.662;2022-08-05T00:54:16;22.17;;;17.37;;
19836;SDS011;10079;55.740;37.662;2022-08-05T00:57:09;25.33;;;17.47;;
19836;SDS011;10079;55.740;37.662;2022-08-05T00:59:50;20.67;;;16.53;;
19836;SDS011;10079;55.740;37.662;2022-08-05T01:02:30;22.40;;;17.23;;
19836;SDS011;10079;55.740;37.662;2022-08-05T01:05:14;24.43;;;17.33;;
19836;SDS011;10079;55.740;37.662;2022-08-05T01:18:31;25.23;;;17.47;;
19836;SDS011;10079;55.740;37.662;2022-08-05T01:31:51;22.00;;;17.08;;
19836;SDS011;10079;55.740;37.662;2022-08-05T01:34:44;20.03;;;16.67;;
19836;SDS011;10079;55.740;37.662;2022-08-05T01:40:22;23.00;;;17.80;;
19836;SDS011;10079;55.740;37.662;2022-08-05T01:43:03;20.17;;;17.50;;
19836;SDS011;10079;55.740;37.662;2022-08-05T01:45:43;23.50;;;16.87;;
19836;SDS011;10079;55.740;37.662;2022-08-05T01:48:28;24.53;;;17.97;;
19836;SDS011;10079;55.740;37.662;2022-08-05T01:51:08;22.63;;;16.67;;
19836;SDS011;10079;55.740;37.662;2022-08-05T01:53:50;21.50;;;17.57;;
19836;SDS011;10079;55.740;37.662;2022-08-05T01:56:31;22.57;;;16.73;;
19836;SDS011;10079;55.740;37.662;2022-08-05T01:59:13;24.93;;;17.00;;
19836;SDS011;10079;55.740;37.662;2022-08-05T02:01:52;21.50;;;16.77;;
19836;SDS011;10079;55.740;37.662;2022-08-05T02:04:33;22.93;;;16.97;;
19836;SDS011;10079;55.740;37.662;2022-08-05T02:07:16;21.53;;;17.00;;
19836;SDS011;10079;55.740;37.662;2022-08-05T02:09:58;23.37;;;16.70;;
19836;SDS011;10079;55.740;37.662;2022-08-05T02:12:52;21.03;;;17.13;;
19836;SDS011;10079;55.740;37.662;2022-08-05T02:25:59;23.67;;;18.10;;
19836;SDS011;10079;55.740;37.662;2022-08-05T02:28:40;25.57;;;18.43;;
19836;SDS011;10079;55.740;37.662;2022-08-05T02:31:21;21.43;;;17.60;;
19836;SDS011;10079;55.740;37.662;2022-08-05T02:34:03;22.70;;;17.90;;
19836;SDS011;10079;55.740;37.662;2022-08-05T02:36:44;24.77;;;19.40;;
19836;SDS011;10079;55.740;37.662;2022-08-05T02:39:28;25.50;;;18.33;;
19836;SDS011;10079;55.740;37.662;2022-08-05T02:42:08;25.73;;;17.40;;
19836;SDS011;10079;55.740;37.662;2022-08-05T02:44:48;27.63;;;18.47;;
19836;SDS011;10079;55.740;37.662;2022-08-05T02:47:30;22.97;;;18.90;;
19836;SDS011;10079;55.740;37.662;2022-08-05T02:50:14;29.30;;;19.43;;
19836;SDS011;10079;55.740;37.662;2022-08-05T02:52:55;23.30;;;18.30;;
19836;SDS011;10079;55.740;37.662;2022-08-05T03:16:40;25.62;;;19.87;;
19836;SDS011;10079;55.740;37.662;2022-08-05T03:19:22;24.17;;;18.90;;
19836;SDS011;10079;55.740;37.662;2022-08-05T03:22:04;26.43;;;18.77;;
19836;SDS011;10079;55.740;37.662;2022-08-05T03:24:56;25.67;;;19.45;;
19836;SDS011;10079;55.740;37.662;2022-08-05T03:38:09;28.92;;;20.37;;
19836;SDS011;10079;55.740;37.662;2022-08-05T03:41:02;26.58;;;19.92;;
19836;SDS011;10079;55.740;37.662;2022-08-05T03:43:47;28.30;;;20.55;;
19836;SDS011;10079;55.740;37.662;2022-08-05T03:46:27;26.62;;;19.80;;
19836;SDS011;10079;55.740;37.662;2022-08-05T03:49:17;32.10;;;20.23;;
19836;SDS011;10079;55.740;37.662;2022-08-05T03:52:01;27.60;;;21.05;;
19836;SDS011;10079;55.740;37.662;2022-08-05T03:54:49;28.62;;;20.85;;
19836;SDS011;10079;55.740;37.662;2022-08-05T03:57:33;26.17;;;20.27;;
19836;SDS011;10079;55.740;37.662;2022-08-05T04:00:18;29.27;;;21.27;;
19836;SDS011;10079;55.740;37.662;2022-08-05T04:03:02;32.20;;;20.67;;
19836;SDS011;10079;55.740;37.662;2022-08-05T04:05:46;29.45;;;20.40;;
19836;SDS011;10079;55.740;37.662;2022-08-05T04:29:42;25.85;;;18.77;;
19836;SDS011;10079;55.740;37.662;2022-08-05T04:32:27;26.83;;;18.62;;
19836;SDS011;10079;55.740;37.662;2022-08-05T04:35:08;24.75;;;18.02;;
19836;SDS011;10079;55.740;37.662;2022-08-05T04:37:49;26.20;;;17.42;;
19836;SDS011;10079;55.740;37.662;2022-08-05T04:40:32;23.30;;;16.00;;
19836;SDS011;10079;55.740;37.662;2022-08-05T04:43:12;23.75;;;17.02;;
19836;SDS011;10079;55.740;37.662;2022-08-05T04:45:53;26.08;;;16.50;;
19836;SDS011;10079;55.740;37.662;2022-08-05T04:48:34;22.10;;;15.85;;
19836;SDS011;10079;55.740;37.662;2022-08-05T04:51:18;21.87;;;15.40;;
19836;SDS011;10079;55.740;37.662;2022-08-05T04:53:59;21.65;;;16.23;;
19836;SDS011;10079;55.740;37.662;2022-08-05T04:56:40;20.58;;;15.60;;
19836;SDS011;10079;55.740;37.662;2022-08-05T04:59:25;21.23;;;15.37;;
19836;SDS011;10079;55.740;37.662;2022-08-05T05:02:05;18.02;;;15.70;;
19836;SDS011;10079;55.740;37.662;2022-08-05T05:04:46;20.05;;;15.13;;
19836;SDS011;10079;55.740;37.662;2022-08-05T05:07:28;22.45;;;15.35;;
19836;SDS011;10079;55.740;37.662;2022-08-05T05:10:08;20.73;;;15.38;;
19836;SDS011;10079;55.740;37.662;2022-08-05T05:12:49;20.30;;;14.63;;
19836;SDS011;10079;55.740;37.662;2022-08-05T05:15:30;21.17;;;15.02;;
19836;SDS011;10079;55.740;37.662;2022-08-05T05:18:12;20.33;;;14.35;;
19836;SDS011;10079;55.740;37.662;2022-08-05T05:20:52;17.52;;;13.90;;
19836;SDS011;10079;55.740;37.662;2022-08-05T05:23:36;20.88;;;13.48;;
19836;SDS011;10079;55.740;37.662;2022-08-05T05:26:29;17.40;;;14.27;;
19836;SDS011;10079;55.740;37.662;2022-08-05T05:29:11;16.50;;;12.90;;
19836;SDS011;10079;55.740;37.662;2022-08-05T05:31:55;16.17;;;12.25;;
19836;SDS011;10079;55.740;37.662;2022-08-05T05:34:35;17.92;;;12.27;;
19836;SDS011;10079;55.740;37.662;2022-08-05T05:37:17;17.37;;;12.00;;
19836;SDS011;10079;55.740;37.662;2022-08-05T05:39:58;16.25;;;12.13;;
19836;SDS011;10079;55.740;37.662;2022-08-05T05:42:42;15.70;;;12.13;;
19836;SDS011;10079;55.740;37.662;2022-08-05T05:45:23;15.00;;;11.55;;
19836;SDS011;10079;55.740;37.662;2022-08-05T05:48:07;17.35;;;12.10;;
19836;SDS011;10079;55.740;37.662;2022-08-05T05:50:51;15.88;;;11.85;;
19836;SDS011;10079;55.740;37.662;2022-08-05T06:04:06;17.70;;;12.07;;
19836;SDS011;10079;55.740;37.662;2022-08-05T06:06:50;14.35;;;11.90;;
19836;SDS011;10079;55.740;37.662;2022-08-05T06:20:11;18.95;;;13.00;;
19836;SDS011;10079;55.740;37.662;2022-08-05T06:22:56;14.13;;;11.65;;
19836;SDS011;10079;55.740;37.662;2022-08-05T06:25:48;25.30;;;11.82;;
19836;SDS011;10079;55.740;37.662;2022-08-05T06:39:14;11.63;;;10.43;;
19836;SDS011;10079;55.740;37.662;2022-08-05T06:52:37;12.82;;;9.15;;
19836;SDS011;10079;55.740;37.662;2022-08-05T06:55:22;9.02;;;7.97;;
19836;SDS011;10079;55.740;37.662;2022-08-05T06:58:02;11.48;;;8.68;;
19836;SDS011;10079;55.740;37.662;2022-08-05T07:00:43;12.35;;;8.30;;
19836;SDS011;10079;55.740;37.662;2022-08-05T07:03:25;9.70;;;8.57;;
19836;SDS011;10079;55.740;37.662;2022-08-05T07:06:10;10.40;;;8.15;;
19836;SDS011;10079;55.740;37.662;2022-08-05T07:08:59;10.63;;;8.43;;
19836;SDS011;10079;55.740;37.662;2022-08-05T07:11:49;8.65;;;7.30;;
19836;SDS011;10079;55.740;37.662;2022-08-05T07:14:30;11.35;;;8.73;;
19836;SDS011;10079;55.740;37.662;2022-08-05T07:17:10;9.50;;;8.27;;
19836;SDS011;10079;55.740;37.662;2022-08-05T07:19:52;8.80;;;7.90;;
19836;SDS011;10079;55.740;37.662;2022-08-05T07:22:36;9.30;;;8.35;;
19836;SDS011;10079;55.740;37.662;2022-08-05T07:25:16;9.88;;;8.95;;
19836;SDS011;10079;55.740;37.662;2022-08-05T07:28:06;8.30;;;7.57;;
19836;SDS011;10079;55.740;37.662;2022-08-05T07:30:47;8.63;;;7.70;;
19836;SDS011;10079;55.740;37.662;2022-08-05T07:33:32;8.88;;;7.97;;
19836;SDS011;10079;55.740;37.662;2022-08-05T07:36:21;9.30;;;8.32;;
19836;SDS011;10079;55.740;37.662;2022-08-05T07:39:03;9.40;;;7.75;;
19836;SDS011;10079;55.740;37.662;2022-08-05T07:41:43;8.20;;;7.37;;
19836;SDS011;10079;55.740;37.662;2022-08-05T07:44:24;9.18;;;8.38;;
19836;SDS011;10079;55.740;37.662;2022-08-05T07:47:04;9.27;;;7.28;;
19836;SDS011;10079;55.740;37.662;2022-08-05T07:49:49;11.90;;;7.62;;
19836;SDS011;10079;55.740;37.662;2022-08-05T07:52:29;9.80;;;7.68;;
19836;SDS011;10079;55.740;37.662;2022-08-05T07:55:11;8.32;;;6.82;;
19836;SDS011;10079;55.740;37.662;2022-08-05T07:57:53;7.47;;;6.65;;
19836;SDS011;10079;55.740;37.662;2022-08-05T08:00:43;9.32;;;7.37;;
19836;SDS011;10079;55.740;37.662;2022-08-05T08:14:06;9.20;;;7.35;;
19836;SDS011;10079;55.740;37.662;2022-08-05T08:16:47;8.93;;;6.72;;
19836;SDS011;10079;55.740;37.662;2022-08-05T08:19:31;10.32;;;6.80;;
19836;SDS011;10079;55.740;37.662;2022-08-05T08:22:15;7.60;;;7.00;;
19836;SDS011;10079;55.740;37.662;2022-08-05T08:24:57;7.75;;;7.03;;
19836;SDS011;10079;55.740;37.662;2022-08-05T08:27:38;7.45;;;6.60;;
19836;SDS011;10079;55.740;37.662;2022-08-05T08:30:18;7.55;;;6.65;;
19836;SDS011;10079;55.740;37.662;2022-08-05T08:43:35;8.13;;;7.00;;
19836;SDS011;10079;55.740;37.662;2022-08-05T08:46:26;7.95;;;7.00;;
19836;SDS011;10079;55.740;37.662;2022-08-05T08:49:14;7.57;;;6.87;;
19836;SDS011;10079;55.740;37.662;2022-08-05T08:52:04;9.35;;;6.93;;
19836;SDS011;10079;55.740;37.662;2022-08-05T08:54:45;7.35;;;6.65;;
19836;SDS011;10079;55.740;37.662;2022-08-05T08:57:29;10.25;;;6.70;;
19836;SDS011;10079;55.740;37.662;2022-08-05T09:00:11;7.62;;;6.43;;
19836;SDS011;10079;55.740;37.662;2022-08-05T09:02:54;7.87;;;7.03;;
19836;SDS011;10079;55.740;37.662;2022-08-05T09:05:38;10.35;;;7.50;;
19836;SDS011;10079;55.740;37.662;2022-08-05T09:18:57;7.57;;;6.80;;
19836;SDS011;10079;55.740;37.662;2022-08-05T09:21:49;8.65;;;7.80;;
19836;SDS011;10079;55.740;37.662;2022-08-05T09:24:35;8.95;;;7.60;;
19836;SDS011;10079;55.740;37.662;2022-08-05T09:27:30;7.28;;;6.60;;
19836;SDS011;10079;55.740;37.662;2022-08-05T09:30:15;7.93;;;7.12;;
19836;SDS011;10079;55.740;37.662;2022-08-05T09:33:00;7.62;;;6.93;;
19836;SDS011;10079;55.740;37.662;2022-08-05T09:38:36;7.20;;;6.50;;
19836;SDS011;10079;55.740;37.662;2022-08-05T09:41:21;8.05;;;7.10;;
19836;SDS011;10079;55.740;37.662;2022-08-05T09:44:01;7.95;;;6.72;;
19836;SDS011;10079;55.740;37.662;2022-08-05T09:46:47;7.68;;;6.70;;
19836;SDS011;10079;55.740;37.662;2022-08-05T09:49:39;8.52;;;7.40;;
19836;SDS011;10079;55.740;37.662;2022-08-05T09:52:28;8.65;;;7.72;;
19836;SDS011;10079;55.740;37.662;2022-08-05T09:55:12;7.60;;;6.78;;
19836;SDS011;10079;55.740;37.662;2022-08-05T09:58:08;7.32;;;6.62;;
19836;SDS011;10079;55.740;37.662;2022-08-05T10:11:20;9.70;;;8.07;;
19836;SDS011;10079;55.740;37.662;2022-08-05T10:14:03;10.10;;;8.30;;
19836;SDS011;10079;55.740;37.662;2022-08-05T10:16:52;9.15;;;7.87;;
19836;SDS011;10079;55.740;37.662;2022-08-05T10:19:41;8.63;;;7.85;;
19836;SDS011;10079;55.740;37.662;2022-08-05T10:22:30;9.38;;;8.35;;
19836;SDS011;10079;55.740;37.662;2022-08-05T10:25:11;9.43;;;8.10;;
19836;SDS011;10079;55.740;37.662;2022-08-05T10:27:51;9.55;;;8.75;;
19836;SDS011;10079;55.740;37.662;2022-08-05T10:30:33;8.80;;;8.05;;
19836;SDS011;10079;55.740;37.662;2022-08-05T10:33:18;9.52;;;8.50;;
19836;SDS011;10079;55.740;37.662;2022-08-05T10:35:59;9.82;;;8.55;;
19836;SDS011;10079;55.740;37.662;2022-08-05T10:38:45;11.25;;;8.30;;
19836;SDS011;10079;55.740;37.662;2022-08-05T10:41:27;8.52;;;7.78;;
19836;SDS011;10079;55.740;37.662;2022-08-05T10:44:11;10.30;;;8.43;;
19836;SDS011;10079;55.740;37.662;2022-08-05T10:46:52;9.52;;;8.57;;
19836;SDS011;10079;55.740;37.662;2022-08-05T10:49:32;9.70;;;8.80;;
19836;SDS011;10079;55.740;37.662;2022-08-05T10:52:17;10.23;;;8.80;;
19836;SDS011;10079;55.740;37.662;2022-08-05T10:55:02;9.55;;;8.68;;
19836;SDS011;10079;55.740;37.662;2022-08-05T10:57:45;9.73;;;8.82;;
19836;SDS011;10079;55.740;37.662;2022-08-05T11:00:26;12.63;;;9.02;;
19836;SDS011;10079;55.740;37.662;2022-08-05T11:03:08;11.00;;;8.27;;
19836;SDS011;10079;55.740;37.662;2022-08-05T11:16:22;10.63;;;9.25;;
19836;SDS011;10079;55.740;37.662;2022-08-05T11:24:42;9.68;;;8.60;;
19836;SDS011;10079;55.740;37.662;2022-08-05T11:30:08;9.88;;;8.73;;
19836;SDS011;10079;55.740;37.662;2022-08-05T11:33:23;18.27;;;9.55;;
19836;SDS011;10079;55.740;37.662;2022-08-05T11:52:23;10.45;;;9.23;;
19836;SDS011;10079;55.740;37.662;2022-08-05T12:05:51;8.73;;;7.85;;
19836;SDS011;10079;55.740;37.662;2022-08-05T12:19:12;8.32;;;7.25;;
19836;SDS011;10079;55.740;37.662;2022-08-05T12:21:57;8.40;;;7.60;;
19836;SDS011;10079;55.740;37.662;2022-08-05T12:24:42;8.77;;;7.55;;
19836;SDS011;10079;55.740;37.662;2022-08-05T12:27:26;8.07;;;7.07;;
19836;SDS011;10079;55.740;37.662;2022-08-05T12:40:42;8.65;;;6.72;;
19836;SDS011;10079;55.740;37.662;2022-08-05T12:43:23;7.55;;;6.72;;
19836;SDS011;10079;55.740;37.662;2022-08-05T12:46:04;6.82;;;6.10;;
19836;SDS011;10079;55.740;37.662;2022-08-05T12:54:24;8.00;;;7.12;;
19836;SDS011;10079;55.740;37.662;2022-08-05T12:57:14;7.37;;;6.78;;
19836;SDS011;10079;55.740;37.662;2022-08-05T12:59:58;9.80;;;7.12;;
19836;SDS011;10079;55.740;37.662;2022-08-05T13:02:48;7.65;;;6.93;;
19836;SDS011;10079;55.740;37.662;2022-08-05T13:05:38;8.27;;;6.75;;
19836;SDS011;10079;55.740;37.662;2022-08-05T13:08:22;8.45;;;6.70;;
19836;SDS011;10079;55.740;37.662;2022-08-05T13:11:07;7.25;;;6.55;;
19836;SDS011;10079;55.740;37.662;2022-08-05T13:13:49;7.47;;;6.43;;
19836;SDS011;10079;55.740;37.662;2022-08-05T13:16:30;7.60;;;6.82;;
19836;SDS011;10079;55.740;37.662;2022-08-05T13:19:11;7.20;;;6.53;;
19836;SDS011;10079;55.740;37.662;2022-08-05T13:21:51;6.97;;;6.28;;
19836;SDS011;10079;55.740;37.662;2022-08-05T13:24:40;10.45;;;7.40;;
19836;SDS011;10079;55.740;37.662;2022-08-05T13:27:26;7.03;;;6.37;;
19836;SDS011;10079;55.740;37.662;2022-08-05T13:30:08;7.93;;;7.12;;
19836;SDS011;10079;55.740;37.662;2022-08-05T13:32:53;7.70;;;7.10;;
19836;SDS011;10079;55.740;37.662;2022-08-05T13:35:34;10.55;;;7.20;;
19836;SDS011;10079;55.740;37.662;2022-08-05T13:38:19;9.02;;;7.00;;
19836;SDS011;10079;55.740;37.662;2022-08-05T13:40:59;8.18;;;7.32;;
19836;SDS011;10079;55.740;37.662;2022-08-05T13:43:39;7.95;;;6.75;;
19836;SDS011;10079;55.740;37.662;2022-08-05T13:46:21;9.95;;;7.20;;
19836;SDS011;10079;55.740;37.662;2022-08-05T13:49:01;13.45;;;12.13;;
19836;SDS011;10079;55.740;37.662;2022-08-05T13:51:42;6.87;;;6.15;;
19836;SDS011;10079;55.740;37.662;2022-08-05T13:54:23;7.22;;;6.43;;
19836;SDS011;10079;55.740;37.662;2022-08-05T13:57:16;7.60;;;6.22;;
19836;SDS011;10079;55.740;37.662;2022-08-05T13:59:57;8.00;;;6.65;;
19836;SDS011;10079;55.740;37.662;2022-08-05T14:02:38;8.13;;;6.43;;
19836;SDS011;10079;55.740;37.662;2022-08-05T14:05:22;7.95;;;6.25;;
19836;SDS011;10079;55.740;37.662;2022-08-05T14:08:04;7.32;;;6.62;;
19836;SDS011;10079;55.740;37.662;2022-08-05T14:10:56;6.65;;;6.03;;
19836;SDS011;10079;55.740;37.662;2022-08-05T14:13:37;8.95;;;6.43;;
19836;SDS011;10079;55.740;37.662;2022-08-05T14:16:22;6.95;;;6.35;;
19836;SDS011;10079;55.740;37.662;2022-08-05T14:19:02;7.18;;;6.43;;
19836;SDS011;10079;55.740;37.662;2022-08-05T14:21:43;7.62;;;6.47;;
19836;SDS011;10079;55.740;37.662;2022-08-05T14:24:25;6.57;;;5.95;;
19836;SDS011;10079;55.740;37.662;2022-08-05T14:27:06;7.30;;;6.50;;
19836;SDS011;10079;55.740;37.662;2022-08-05T14:29:47;5.82;;;5.22;;
19836;SDS011;10079;55.740;37.662;2022-08-05T14:32:28;6.50;;;5.90;;
19836;SDS011;10079;55.740;37.662;2022-08-05T14:35:22;7.35;;;6.40;;
19836;SDS011;10079;55.740;37.662;2022-08-05T14:38:06;8.65;;;6.45;;
19836;SDS011;10079;55.740;37.662;2022-08-05T14:40:50;7.37;;;6.60;;
19836;SDS011;10079;55.740;37.662;2022-08-05T14:43:39;7.15;;;6.45;;
19836;SDS011;10079;55.740;37.662;2022-08-05T14:46:21;8.20;;;6.40;;
19836;SDS011;10079;55.740;37.662;2022-08-05T14:49:02;6.87;;;6.07;;
19836;SDS011;10079;55.740;37.662;2022-08-05T14:51:54;7.45;;;6.75;;
19836;SDS011;10079;55.740;37.662;2022-08-05T14:54:47;6.57;;;6.07;;
19836;SDS011;10079;55.740;37.662;2022-08-05T14:57:28;6.85;;;6.07;;
19836;SDS011;10079;55.740;37.662;2022-08-05T15:00:12;6.93;;;6.32;;
19836;SDS011;10079;55.740;37.662;2022-08-05T15:02:57;6.90;;;6.15;;
19836;SDS011;10079;55.740;37.662;2022-08-05T15:16:12;6.85;;;6.25;;
19836;SDS011;10079;55.740;37.662;2022-08-05T15:18:57;8.00;;;6.90;;
19836;SDS011;10079;55.740;37.662;2022-08-05T15:21:43;6.87;;;6.20;;
19836;SDS011;10079;55.740;37.662;2022-08-05T15:35:02;8.20;;;6.95;;
19836;SDS011;10079;55.740;37.662;2022-08-05T15:48:22;8.73;;;6.87;;
19836;SDS011;10079;55.740;37.662;2022-08-05T15:51:03;7.72;;;7.00;;
19836;SDS011;10079;55.740;37.662;2022-08-05T15:53:45;9.60;;;7.40;;
19836;SDS011;10079;55.740;37.662;2022-08-05T15:56:25;7.78;;;6.70;;
19836;SDS011;10079;55.740;37.662;2022-08-05T15:59:09;7.53;;;6.72;;
19836;SDS011;10079;55.740;37.662;2022-08-05T16:01:50;10.00;;;7.15;;
19836;SDS011;10079;55.740;37.662;2022-08-05T16:04:31;8.38;;;6.43;;
19836;SDS011;10079;55.740;37.662;2022-08-05T16:07:11;7.93;;;6.85;;
19836;SDS011;10079;55.740;37.662;2022-08-05T16:09:52;6.95;;;6.35;;
19836;SDS011;10079;55.740;37.662;2022-08-05T16:12:33;7.70;;;6.50;;
19836;SDS011;10079;55.740;37.662;2022-08-05T16:15:15;8.30;;;7.00;;
19836;SDS011;10079;55.740;37.662;2022-08-05T16:17:55;7.32;;;6.47;;
19836;SDS011;10079;55.740;37.662;2022-08-05T16:20:40;7.28;;;6.57;;
19836;SDS011;10079;55.740;37.662;2022-08-05T16:23:24;8.98;;;6.82;;
19836;SDS011;10079;55.740;37.662;2022-08-05T16:26:07;9.05;;;6.50;;
19836;SDS011;10079;55.740;37.662;2022-08-05T16:28:59;9.50;;;6.53;;
19836;SDS011;10079;55.740;37.662;2022-08-05T16:31:43;7.50;;;6.90;;
19836;SDS011;10079;55.740;37.662;2022-08-05T16:34:25;7.65;;;6.87;;
19836;SDS011;10079;55.740;37.662;2022-08-05T16:37:17;10.70;;;6.85;;
19836;SDS011;10079;55.740;37.662;2022-08-05T16:40:01;8.13;;;7.40;;
19836;SDS011;10079;55.740;37.662;2022-08-05T16:42:46;10.38;;;7.05;;
19836;SDS011;10079;55.740;37.662;2022-08-05T16:45:27;7.40;;;6.65;;
19836;SDS011;10079;55.740;37.662;2022-08-05T16:48:09;7.45;;;6.60;;
19836;SDS011;10079;55.740;37.662;2022-08-05T16:50:53;11.52;;;7.15;;
19836;SDS011;10079;55.740;37.662;2022-08-05T16:53:38;9.02;;;7.45;;
19836;SDS011;10079;55.740;37.662;2022-08-05T16:56:22;10.77;;;7.47;;
19836;SDS011;10079;55.740;37.662;2022-08-05T16:59:03;10.57;;;7.60;;
19836;SDS011;10079;55.740;37.662;2022-08-05T17:01:43;8.73;;;7.40;;
19836;SDS011;10079;55.740;37.662;2022-08-05T17:04:24;9.57;;;6.87;;
19836;SDS011;10079;55.740;37.662;2022-08-05T17:07:05;10.65;;;7.53;;
19836;SDS011;10079;55.740;37.662;2022-08-05T17:09:47;8.18;;;7.37;;
19836;SDS011;10079;55.740;37.662;2022-08-05T17:12:31;9.57;;;7.50;;
19836;SDS011;10079;55.740;37.662;2022-08-05T17:15:15;8.48;;;7.57;;
19836;SDS011;10079;55.740;37.662;2022-08-05T17:17:56;10.75;;;7.95;;
19836;SDS011;10079;55.740;37.662;2022-08-05T17:20:36;10.38;;;7.85;;
19836;SDS011;10079;55.740;37.662;2022-08-05T17:23:26;8.25;;;7.32;;
19836;SDS011;10079;55.740;37.662;2022-08-05T17:26:07;10.32;;;7.53;;
19836;SDS011;10079;55.740;37.662;2022-08-05T17:28:49;10.50;;;7.28;;
19836;SDS011;10079;55.740;37.662;2022-08-05T17:31:30;10.30;;;7.12;;
19836;SDS011;10079;55.740;37.662;2022-08-05T17:34:15;11.82;;;7.70;;
19836;SDS011;10079;55.740;37.662;2022-08-05T17:36:59;10.45;;;7.78;;
19836;SDS011;10079;55.740;37.662;2022-08-05T17:39:43;8.93;;;7.78;;
19836;SDS011;10079;55.740;37.662;2022-08-05T17:42:27;10.43;;;7.50;;
19836;SDS011;10079;55.740;37.662;2022-08-05T17:55:58;10.70;;;9.10;;
19836;SDS011;10079;55.740;37.662;2022-08-05T17:58:51;10.98;;;8.73;;
19836;SDS011;10079;55.740;37.662;2022-08-05T18:01:35;12.48;;;8.10;;
19836;SDS011;10079;55.740;37.662;2022-08-05T18:04:28;12.43;;;8.65;;
19836;SDS011;10079;55.740;37.662;2022-08-05T18:07:09;9.80;;;8.30;;
19836;SDS011;10079;55.740;37.662;2022-08-05T18:09:53;14.23;;;8.57;;
19836;SDS011;10079;55.740;37.662;2022-08-05T18:12:46;12.32;;;9.80;;
19836;SDS011;10079;55.740;37.662;2022-08-05T18:15:27;12.73;;;9.25;;
19836;SDS011;10079;55.740;37.662;2022-08-05T18:28:54;11.85;;;8.65;;
19836;SDS011;10079;55.740;37.662;2022-08-05T18:31:38;11.85;;;8.90;;
19836;SDS011;10079;55.740;37.662;2022-08-05T18:34:18;11.70;;;8.90;;
19836;SDS011;10079;55.740;37.662;2022-08-05T18:37:03;10.57;;;9.27;;
19836;SDS011;10079;55.740;37.662;2022-08-05T18:39:47;10.80;;;9.02;;
19836;SDS011;10079;55.740;37.662;2022-08-05T18:42:28;12.85;;;9.55;;
19836;SDS011;10079;55.740;37.662;2022-08-05T18:45:12;20.30;;;10.23;;
19836;SDS011;10079;55.740;37.662;2022-08-05T18:48:01;17.58;;;10.07;;
19836;SDS011;10079;55.740;37.662;2022-08-05T18:50:50;11.43;;;9.15;;
19836;SDS011;10079;55.740;37.662;2022-08-05T18:53:35;13.68;;;9.02;;
19836;SDS011;10079;55.740;37.662;2022-08-05T18:56:19;16.20;;;9.63;;
19836;SDS011;10079;55.740;37.662;2022-08-05T18:59:00;11.43;;;8.95;;
19836;SDS011;10079;55.740;37.662;2022-08-05T19:01:40;14.50;;;9.45;;
19836;SDS011;10079;55.740;37.662;2022-08-05T19:04:21;12.60;;;8.88;;
19836;SDS011;10079;55.740;37.662;2022-08-05T19:07:02;13.10;;;9.55;;
19836;SDS011;10079;55.740;37.662;2022-08-05T19:09:42;12.70;;;9.13;;
19836;SDS011;10079;55.740;37.662;2022-08-05T19:23:03;10.18;;;9.25;;
19836;SDS011;10079;55.740;37.662;2022-08-05T19:25:44;11.48;;;9.77;;
19836;SDS011;10079;55.740;37.662;2022-08-05T19:28:25;13.00;;;9.30;;
19836;SDS011;10079;55.740;37.662;2022-08-05T19:31:10;14.15;;;9.45;;
19836;SDS011;10079;55.740;37.662;2022-08-05T19:33:50;12.90;;;9.35;;
19836;SDS011;10079;55.740;37.662;2022-08-05T19:36:32;13.18;;;9.40;;
19836;SDS011;10079;55.740;37.662;2022-08-05T19:39:12;13.75;;;9.88;;
19836;SDS011;10079;55.740;37.662;2022-08-05T19:41:54;12.52;;;9.57;;
19836;SDS011;10079;55.740;37.662;2022-08-05T19:44:35;13.60;;;10.45;;
19836;SDS011;10079;55.740;37.662;2022-08-05T19:47:16;13.38;;;10.35;;
19836;SDS011;10079;55.740;37.662;2022-08-05T19:49:57;21.90;;;11.23;;
19836;SDS011;10079;55.740;37.662;2022-08-05T19:52:41;15.63;;;10.98;;
19836;SDS011;10079;55.740;37.662;2022-08-05T19:55:34;14.05;;;11.68;;
19836;SDS011;10079;55.740;37.662;2022-08-05T19:58:14;13.07;;;10.27;;
19836;SDS011;10079;55.740;37.662;2022-08-05T20:00:57;11.52;;;9.60;;
19836;SDS011;10079;55.740;37.662;2022-08-05T20:03:38;13.32;;;9.38;;
19836;SDS011;10079;55.740;37.662;2022-08-05T20:06:19;11.68;;;10.02;;
19836;SDS011;10079;55.740;37.662;2022-08-05T20:09:00;11.73;;;9.88;;
19836;SDS011;10079;55.740;37.662;2022-08-05T20:11:41;12.98;;;10.05;;
19836;SDS011;10079;55.740;37.662;2022-08-05T20:14:25;16.20;;;9.77;;
19836;SDS011;10079;55.740;37.662;2022-08-05T20:17:06;11.95;;;10.38;;
19836;SDS011;10079;55.740;37.662;2022-08-05T20:19:46;15.40;;;9.55;;
19836;SDS011;10079;55.740;37.662;2022-08-05T20:22:28;11.77;;;9.32;;
19836;SDS011;10079;55.740;37.662;2022-08-05T20:25:09;13.38;;;9.35;;
19836;SDS011;10079;55.740;37.662;2022-08-05T20:27:50;12.27;;;10.40;;
19836;SDS011;10079;55.740;37.662;2022-08-05T20:30:34;14.80;;;10.10;;
19836;SDS011;10079;55.740;37.662;2022-08-05T20:33:23;12.25;;;9.40;;
19836;SDS011;10079;55.740;37.662;2022-08-05T21:08:15;16.02;;;10.65;;
19836;SDS011;10079;55.740;37.662;2022-08-05T21:10:57;17.45;;;10.38;;
19836;SDS011;10079;55.740;37.662;2022-08-05T21:13:42;16.05;;;11.18;;
19836;SDS011;10079;55.740;37.662;2022-08-05T21:16:26;17.83;;;12.45;;
19836;SDS011;10079;55.740;37.662;2022-08-05T21:19:08;18.43;;;11.93;;
19836;SDS011;10079;55.740;37.662;2022-08-05T21:21:52;16.43;;;11.53;;
19836;SDS011;10079;55.740;37.662;2022-08-05T21:24:36;16.93;;;11.47;;
19836;SDS011;10079;55.740;37.662;2022-08-05T21:27:18;17.43;;;12.87;;
19836;SDS011;10079;55.740;37.662;2022-08-05T21:30:07;16.57;;;12.40;;
19836;SDS011;10079;55.740;37.662;2022-08-05T21:32:58;17.17;;;12.60;;
19836;SDS011;10079;55.740;37.662;2022-08-05T21:35:38;13.90;;;11.20;;
19836;SDS011;10079;55.740;37.662;2022-08-05T21:38:19;14.83;;;12.30;;
19836;SDS011;10079;55.740;37.662;2022-08-05T21:41:00;18.77;;;12.90;;
19836;SDS011;10079;55.740;37.662;2022-08-05T21:54:21;15.38;;;12.32;;
19836;SDS011;10079;55.740;37.662;2022-08-05T21:57:03;14.30;;;11.67;;
19836;SDS011;10079;55.740;37.662;2022-08-05T21:59:54;16.53;;;12.50;;
19836;SDS011;10079;55.740;37.662;2022-08-05T22:02:43;13.20;;;11.03;;
19836;SDS011;10079;55.740;37.662;2022-08-05T22:05:25;14.83;;;11.43;;
19836;SDS011;10079;55.740;37.662;2022-08-05T22:08:06;11.97;;;10.77;;
19836;SDS011;10079;55.740;37.662;2022-08-05T22:10:59;14.30;;;11.37;;
19836;SDS011;10079;55.740;37.662;2022-08-05T22:13:40;13.30;;;10.87;;